Viamao, Brazil
Current Conditions -  °F | °C
As of 11:00 PM on Saturday 25 Oct 2014 (Local Time) from SBPA Reporting Station
Few Clouds Few Clouds  
Wind Chill: 70°   Ceiling: Unl
Heat Index: 70°   Visibility: 6mi
Dew Point: 66°   Wind: 14mph
Humidity: 88%   Direction: 110°ESE
Pressure: 29.91"   Gusts: NA
Location:  30.09°S, 50.98°W
Report Text: SBPA 260100Z 11012KT 9999 FEW011 21/19 Q1013
Loading
Personal Weather Stations






























Interactive Weather Map
Tropical Storm Tracking
New forecast layout! Learn more

10-Day Weather Forecast

Advertisements
Track Severe Weather on mobile